Time;durP1;ratioP1;P1;durP2;ratioP2;P2;SDS_P1;SDS_P2;PMS_P1;PMS_P2;Temp;Humidity;BMP_temperature;BMP_pressure;BME280_temperature;BME280_humidity;BME280_pressure;Samples;Min_cycle;Max_cycle;Signal;HPM_P1;HPM_P2
2022/10/23 00:01:00;;;;;;;9.52;3.55;;;17.00;76.50;;;;;;4993068;28;20057;-77
2022/10/23 00:03:26;;;;;;;7.10;4.57;;;16.90;76.40;;;;;;5002844;28;20057;-79
2022/10/23 00:05:52;;;;;;;8.05;3.13;;;16.90;76.50;;;;;;5003427;28;20035;-78
2022/10/23 00:08:18;;;;;;;8.38;3.83;;;16.90;76.50;;;;;;4984559;28;20041;-78
2022/10/23 00:10:44;;;;;;;8.70;3.13;;;16.90;76.60;;;;;;4993354;28;20041;-77
2022/10/23 00:13:10;;;;;;;7.28;2.90;;;16.90;76.60;;;;;;4993020;28;20029;-77
2022/10/23 00:15:36;;;;;;;10.00;3.15;;;16.90;76.70;;;;;;4992919;28;20077;-78
2022/10/23 00:18:03;;;;;;;10.73;3.35;;;16.90;76.70;;;;;;5010368;28;20029;-78
2022/10/23 00:20:29;;;;;;;10.63;3.65;;;16.90;76.70;;;;;;4997117;28;20027;-78
2022/10/23 00:22:55;;;;;;;7.93;2.95;;;16.90;76.80;;;;;;4998845;28;20036;-78
2022/10/23 00:25:21;;;;;;;8.68;3.92;;;16.90;76.80;;;;;;5022300;28;20038;-79
2022/10/23 00:27:47;;;;;;;4.30;2.80;;;16.90;76.80;;;;;;5008961;28;20032;-80
2022/10/23 00:30:13;;;;;;;7.75;3.97;;;16.90;76.90;;;;;;5016963;28;20265;-79
2022/10/23 00:32:39;;;;;;;9.27;4.38;;;16.90;76.90;;;;;;5009595;28;20039;-78
2022/10/23 00:35:06;;;;;;;7.00;3.33;;;16.90;76.90;;;;;;4995103;28;20042;-77
2022/10/23 00:37:33;;;;;;;11.18;3.72;;;16.90;76.90;;;;;;4997319;28;20133;-79
2022/10/23 00:40:00;;;;;;;8.25;2.92;;;16.90;76.90;;;;;;4997735;28;20114;-79
2022/10/23 00:42:27;;;;;;;7.75;3.15;;;16.90;76.90;;;;;;4990510;28;20121;-79
2022/10/23 00:45:11;;;;;;;8.82;3.20;;;16.90;77.00;;;;;;4980080;28;20026;-78
2022/10/23 00:47:37;;;;;;;9.90;3.47;;;16.90;76.90;;;;;;4995121;28;20117;-77
2022/10/23 00:50:03;;;;;;;7.55;3.40;;;16.90;77.00;;;;;;5000381;28;20022;-78
2022/10/23 00:52:30;;;;;;;8.73;3.60;;;16.90;76.90;;;;;;5008773;28;20520;-78
2022/10/23 00:54:57;;;;;;;8.23;4.25;;;16.90;77.00;;;;;;4997640;28;20109;-78
2022/10/23 00:57:24;;;;;;;10.82;3.53;;;16.90;77.00;;;;;;5005494;28;20097;-80
2022/10/23 00:59:51;;;;;;;8.70;3.53;;;16.90;77.00;;;;;;5003472;28;20050;-77
2022/10/23 01:02:17;;;;;;;9.43;3.85;;;16.80;76.90;;;;;;4961913;28;20375;-78
2022/10/23 01:04:43;;;;;;;8.50;2.65;;;16.90;77.10;;;;;;4996113;28;20046;-78
2022/10/23 01:07:17;;;;;;;7.55;3.03;;;16.80;76.90;;;;;;4991618;28;20362;-77
2022/10/23 01:09:53;;;;;;;9.50;3.13;;;16.80;77.00;;;;;;4994467;28;20128;-78
2022/10/23 01:12:44;;;;;;;6.50;3.08;;;16.80;77.00;;;;;;5010179;28;20157;-78
2022/10/23 01:15:55;;;;;;;9.02;4.25;;;16.80;77.00;;;;;;4991017;28;20039;-78
2022/10/23 01:18:33;;;;;;;9.77;2.70;;;16.80;77.00;;;;;;4968782;28;20034;-78
2022/10/23 01:21:08;;;;;;;6.80;3.25;;;16.80;77.00;;;;;;4991220;28;20053;-77
2022/10/23 01:23:59;;;;;;;7.68;2.90;;;16.80;77.60;;;;;;4985100;28;20097;-78
2022/10/23 01:27:12;;;;;;;8.13;3.25;;;16.80;77.10;;;;;;4986194;28;20106;-78
2022/10/23 01:29:50;;;;;;;5.07;2.42;;;16.80;77.10;;;;;;5004776;28;20126;-77
2022/10/23 01:32:37;;;;;;;7.90;3.83;;;16.80;77.10;;;;;;4987750;28;20030;-77
2022/10/23 01:35:13;;;;;;;9.80;3.20;;;16.80;77.20;;;;;;4994934;28;20045;-78
2022/10/23 01:38:10;;;;;;;8.90;2.90;;;16.80;77.20;;;;;;5002147;28;20029;-79
2022/10/23 01:40:41;;;;;;;9.07;2.67;;;16.80;77.30;;;;;;5005699;28;20077;-79
2022/10/23 01:43:15;;;;;;;6.45;4.00;;;16.80;77.20;;;;;;4981899;28;20159;-79
2022/10/23 01:45:44;;;;;;;5.72;2.47;;;16.80;77.30;;;;;;5005691;28;20041;-78
2022/10/23 01:48:20;;;;;;;6.40;3.33;;;16.80;77.30;;;;;;5019300;28;20053;-77
2022/10/23 01:50:50;;;;;;;8.18;3.03;;;16.70;77.20;;;;;;5020297;28;20482;-78
2022/10/23 01:53:18;;;;;;;6.95;3.47;;;16.80;77.40;;;;;;5042055;28;20030;-76
2022/10/23 01:55:48;;;;;;;8.90;3.00;;;16.80;77.40;;;;;;5015182;28;20066;-78
2022/10/23 01:58:21;;;;;;;11.02;3.13;;;16.80;77.40;;;;;;5032070;28;20022;-78
2022/10/23 02:00:50;;;;;;;7.53;2.95;;;16.80;77.40;;;;;;5017901;28;20046;-78
2022/10/23 02:03:17;;;;;;;9.45;3.90;;;16.80;77.40;;;;;;5029052;28;20048;-77
2022/10/23 02:05:44;;;;;;;4.30;2.03;;;16.80;77.40;;;;;;5024696;28;20049;-77
2022/10/23 02:08:10;;;;;;;6.63;2.85;;;16.80;77.40;;;;;;5016524;28;20050;-78
2022/10/23 02:10:47;;;;;;;8.18;3.03;;;16.80;77.40;;;;;;5016478;28;20113;-78
2022/10/23 02:13:33;;;;;;;6.60;2.55;;;16.80;77.40;;;;;;5026454;28;20032;-77
2022/10/23 02:16:07;;;;;;;9.70;3.10;;;16.80;77.50;;;;;;5031376;28;20054;-79
2022/10/23 02:18:45;;;;;;;10.65;3.20;;;16.80;77.50;;;;;;5033474;28;20058;-78
2022/10/23 02:21:14;;;;;;;10.93;3.38;;;16.80;77.50;;;;;;5005718;28;20042;-79
2022/10/23 02:23:48;;;;;;;10.85;3.20;;;16.80;77.50;;;;;;5028369;28;20054;-79
2022/10/23 02:26:32;;;;;;;6.88;3.20;;;16.80;77.60;;;;;;5014582;28;20109;-78
2022/10/23 02:29:11;;;;;;;9.90;3.20;;;16.70;77.50;;;;;;5011657;28;20101;-77
2022/10/23 02:31:41;;;;;;;11.52;3.92;;;16.70;77.50;;;;;;5000515;28;20034;-79
2022/10/23 02:34:08;;;;;;;8.30;3.17;;;16.70;77.50;;;;;;5002041;28;20046;-78
2022/10/23 02:36:36;;;;;;;5.80;2.83;;;16.80;77.70;;;;;;5002296;28;20136;-78
2022/10/23 02:39:04;;;;;;;9.20;3.20;;;16.80;77.80;;;;;;5008917;28;20049;-80
2022/10/23 02:41:53;;;;;;;8.07;3.05;;;16.70;77.60;;;;;;5024675;28;20546;-79
2022/10/23 02:44:38;;;;;;;8.07;3.10;;;16.70;77.60;;;;;;4982364;28;20046;-79
2022/10/23 02:47:20;;;;;;;8.73;2.83;;;16.80;77.90;;;;;;5005799;28;20046;-77
2022/10/23 02:49:53;;;;;;;6.95;2.90;;;16.80;77.80;;;;;;5029816;28;20606;-77
2022/10/23 02:52:40;;;;;;;7.65;2.97;;;16.80;77.80;;;;;;5001554;28;20105;-79
2022/10/23 02:55:30;;;;;;;6.03;3.30;;;16.80;77.90;;;;;;5001504;28;20560;-79
2022/10/23 02:58:04;;;;;;;5.28;3.15;;;16.80;77.90;;;;;;5001108;28;20026;-79
2022/10/23 03:00:33;;;;;;;8.98;4.53;;;16.80;77.80;;;;;;5015688;28;20114;-78
2022/10/23 03:03:07;;;;;;;5.22;3.03;;;16.80;77.80;;;;;;4988336;28;20105;-79
2022/10/23 03:05:38;;;;;;;7.70;3.13;;;16.80;77.80;;;;;;5021105;28;20188;-79
2022/10/23 03:08:07;;;;;;;7.45;3.47;;;16.80;77.80;;;;;;5006837;28;20132;-80
2022/10/23 03:10:33;;;;;;;7.20;2.92;;;16.80;77.80;;;;;;5013788;28;20137;-79
2022/10/23 03:13:00;;;;;;;7.22;3.72;;;16.80;77.90;;;;;;5014745;28;20086;-78
2022/10/23 03:15:31;;;;;;;6.95;3.65;;;16.80;77.90;;;;;;4985623;28;20192;-79
2022/10/23 03:17:57;;;;;;;8.27;3.22;;;16.80;77.90;;;;;;5004817;28;20101;-78
2022/10/23 03:20:23;;;;;;;5.57;2.90;;;16.80;77.90;;;;;;5018503;28;20517;-78
2022/10/23 03:22:51;;;;;;;13.27;3.90;;;16.80;78.00;;;;;;4997631;28;20565;-77
2022/10/23 03:25:18;;;;;;;11.68;4.78;;;16.80;78.00;;;;;;5004715;28;20143;-77
2022/10/23 03:27:44;;;;;;;8.93;3.75;;;16.80;78.00;;;;;;4980348;28;20089;-80
2022/10/23 03:30:14;;;;;;;8.38;3.88;;;16.80;78.10;;;;;;5018156;28;20097;-79
2022/10/23 03:32:40;;;;;;;7.68;3.38;;;16.80;78.10;;;;;;5030803;28;20118;-79
2022/10/23 03:35:08;;;;;;;11.52;3.60;;;16.80;78.20;;;;;;5010796;28;20140;-77
2022/10/23 03:37:34;;;;;;;8.05;3.60;;;16.80;78.20;;;;;;5002698;28;20101;-79
2022/10/23 03:40:00;;;;;;;7.20;3.17;;;16.80;78.20;;;;;;5026441;28;20034;-81
2022/10/23 03:42:29;;;;;;;8.70;3.28;;;16.80;78.20;;;;;;5000370;28;20084;-78
2022/10/23 03:44:55;;;;;;;6.28;3.05;;;16.80;78.30;;;;;;5009032;28;20085;-80
2022/10/23 03:47:21;;;;;;;8.05;3.53;;;16.80;78.30;;;;;;5006688;28;20045;-79
2022/10/23 03:49:47;;;;;;;8.45;2.90;;;16.80;78.30;;;;;;5003155;28;20098;-79
2022/10/23 03:52:13;;;;;;;7.78;3.33;;;16.80;78.30;;;;;;5027019;28;20114;-80
2022/10/23 03:54:39;;;;;;;7.90;3.03;;;16.80;78.30;;;;;;5012093;28;20095;-79
2022/10/23 03:57:05;;;;;;;11.05;3.55;;;16.80;78.30;;;;;;5030721;28;20192;-79
2022/10/23 03:59:31;;;;;;;6.00;3.60;;;16.80;78.30;;;;;;5006904;28;20030;-78
2022/10/23 04:01:58;;;;;;;8.63;3.78;;;16.90;78.40;;;;;;4998731;28;20085;-78
2022/10/23 04:04:24;;;;;;;8.82;3.90;;;16.90;78.40;;;;;;4985178;28;20046;-78
2022/10/23 04:06:50;;;;;;;8.30;3.33;;;16.90;78.40;;;;;;5007111;28;20026;-78
2022/10/23 04:09:18;;;;;;;6.85;3.55;;;16.90;78.40;;;;;;4997420;28;20121;-79
2022/10/23 04:11:44;;;;;;;3.38;2.42;;;16.90;78.40;;;;;;5005529;28;20112;-78
2022/10/23 04:14:12;;;;;;;6.68;3.33;;;16.90;78.40;;;;;;5016558;28;20306;-78
2022/10/23 04:16:38;;;;;;;6.30;3.42;;;16.90;78.40;;;;;;5013534;28;20173;-79
2022/10/23 04:19:05;;;;;;;8.13;3.15;;;16.90;78.40;;;;;;4987095;28;20115;-81
2022/10/23 04:21:31;;;;;;;6.93;3.17;;;16.90;78.40;;;;;;5025793;28;20094;-79
2022/10/23 04:23:58;;;;;;;5.13;2.72;;;16.90;78.50;;;;;;5009869;28;20030;-77
2022/10/23 04:26:25;;;;;;;7.82;3.22;;;16.80;78.30;;;;;;5002261;28;20034;-80
2022/10/23 04:28:51;;;;;;;5.55;2.97;;;16.90;78.50;;;;;;5000490;28;20137;-79
2022/10/23 04:31:17;;;;;;;4.82;3.50;;;16.80;78.40;;;;;;5009510;28;20489;-78
2022/10/23 04:33:43;;;;;;;4.35;2.95;;;16.80;78.40;;;;;;5017172;28;20129;-79
2022/10/23 04:36:24;;;;;;;3.60;2.60;;;16.80;78.40;;;;;;5005062;28;20030;-79
2022/10/23 04:38:52;;;;;;;5.40;2.40;;;16.80;78.40;;;;;;5006294;28;20023;-80
2022/10/23 04:41:20;;;;;;;6.05;2.75;;;16.80;78.50;;;;;;4992094;28;20110;-80
2022/10/23 04:43:47;;;;;;;5.97;2.80;;;16.80;78.50;;;;;;5004219;28;20117;-79
2022/10/23 04:46:15;;;;;;;3.63;2.33;;;16.80;78.50;;;;;;5003800;28;20116;-77
2022/10/23 04:48:45;;;;;;;4.00;2.30;;;16.80;78.60;;;;;;5004893;28;20137;-78
2022/10/23 04:51:47;;;;;;;3.42;2.45;;;16.80;78.60;;;;;;4989910;28;20194;-75
2022/10/23 04:54:37;;;;;;;5.57;2.53;;;16.80;78.60;;;;;;4994048;28;20204;-78
2022/10/23 04:57:22;;;;;;;5.38;2.70;;;16.80;78.70;;;;;;4983122;28;20054;-77
2022/10/23 05:00:06;;;;;;;3.57;2.53;;;16.80;78.70;;;;;;4991704;28;20517;-77
2022/10/23 05:02:42;;;;;;;3.28;2.45;;;16.80;78.70;;;;;;5004051;28;20271;-78
2022/10/23 05:05:10;;;;;;;4.15;2.17;;;16.80;78.70;;;;;;4997290;28;20129;-78
2022/10/23 05:07:55;;;;;;;4.57;2.90;;;16.80;78.70;;;;;;5002842;28;20097;-77
2022/10/23 05:10:41;;;;;;;3.58;2.10;;;16.80;78.70;;;;;;4999402;28;20046;-77
2022/10/23 05:13:12;;;;;;;2.53;1.67;;;16.80;78.70;;;;;;5000186;28;20436;-77
2022/10/23 05:15:39;;;;;;;2.53;1.70;;;16.80;78.80;;;;;;5012842;28;20046;-77
2022/10/23 05:18:13;;;;;;;3.15;2.25;;;16.80;78.80;;;;;;4977388;28;20044;-77
2022/10/23 05:20:41;;;;;;;2.85;1.85;;;16.80;78.80;;;;;;4986015;28;20038;-77
2022/10/23 05:23:12;;;;;;;3.22;1.83;;;16.80;78.80;;;;;;5002815;28;20110;-84
2022/10/23 05:25:41;;;;;;;3.78;2.00;;;16.80;78.80;;;;;;5003301;28;20181;-80
2022/10/23 05:28:14;;;;;;;3.25;2.45;;;16.80;78.90;;;;;;4986927;28;20153;-81
2022/10/23 05:30:41;;;;;;;2.17;1.50;;;16.80;78.90;;;;;;5006994;28;20110;-84
2022/10/23 05:33:09;;;;;;;4.38;2.75;;;16.70;78.70;;;;;;5014265;28;20097;-85
2022/10/23 05:35:43;;;;;;;4.20;2.00;;;16.80;78.90;;;;;;5009549;28;20106;-81
2022/10/23 05:38:10;;;;;;;4.05;1.92;;;16.70;78.80;;;;;;5016312;28;20114;-81
2022/10/23 05:40:37;;;;;;;2.17;1.67;;;16.70;78.80;;;;;;5008926;28;20134;-82
2022/10/23 05:43:06;;;;;;;3.95;2.00;;;16.70;78.90;;;;;;5004760;28;20129;-82
2022/10/23 05:45:51;;;;;;;4.82;2.80;;;16.70;78.90;;;;;;5006332;28;20034;-86
2022/10/23 05:48:44;;;;;;;2.65;2.40;;;16.70;78.90;;;;;;5003992;28;20121;-78
2022/10/23 05:51:30;;;;;;;2.88;2.20;;;16.70;78.90;;;;;;5004346;28;20118;-79
2022/10/23 05:54:07;;;;;;;3.58;2.10;;;16.70;79.00;;;;;;5005719;28;20058;-84
2022/10/23 05:56:56;;;;;;;3.38;2.28;;;16.70;79.10;;;;;;5013046;28;20060;-81
2022/10/23 05:59:42;;;;;;;3.03;2.22;;;16.70;79.10;;;;;;5004110;28;20113;-81
2022/10/23 06:02:18;;;;;;;2.65;1.98;;;16.70;79.10;;;;;;4988534;28;20121;-83
2022/10/23 06:04:52;;;;;;;3.08;2.28;;;16.60;78.90;;;;;;4991684;28;20092;-80
2022/10/23 06:07:44;;;;;;;3.00;1.60;;;16.60;79.00;;;;;;4989252;28;20490;-79
2022/10/23 06:10:12;;;;;;;2.97;1.70;;;16.60;79.00;;;;;;4997657;28;20366;-77
2022/10/23 06:12:42;;;;;;;2.83;1.50;;;16.60;79.10;;;;;;5000573;28;20034;-84
2022/10/23 06:15:12;;;;;;;2.60;1.85;;;16.60;79.10;;;;;;5004755;28;20057;-77
2022/10/23 06:18:00;;;;;;;2.45;1.63;;;16.60;79.20;;;;;;4993147;28;20034;-77
2022/10/23 06:20:28;;;;;;;3.00;1.63;;;16.60;79.20;;;;;;4993956;28;20022;-80
2022/10/23 06:23:03;;;;;;;2.55;2.30;;;16.60;79.20;;;;;;4970004;28;20031;-80
2022/10/23 06:25:55;;;;;;;2.08;1.88;;;16.60;79.30;;;;;;5002897;28;20037;-79
2022/10/23 06:28:28;;;;;;;3.17;1.67;;;16.60;79.30;;;;;;4976188;28;20035;-78
2022/10/23 06:30:54;;;;;;;3.65;1.52;;;16.60;79.40;;;;;;4991567;28;20052;-79
2022/10/23 06:33:23;;;;;;;1.73;1.38;;;16.60;79.40;;;;;;4990097;28;20364;-79
2022/10/23 06:35:54;;;;;;;2.22;1.10;;;16.60;79.40;;;;;;4990507;28;20159;-78
2022/10/23 06:38:20;;;;;;;1.80;1.45;;;16.60;79.40;;;;;;4992440;28;20018;-79
2022/10/23 06:40:56;;;;;;;2.97;2.13;;;16.60;79.40;;;;;;4999911;28;20033;-80
2022/10/23 06:43:35;;;;;;;1.60;1.50;;;16.60;79.50;;;;;;4986662;28;20655;-79
2022/10/23 06:46:19;;;;;;;2.25;1.20;;;16.60;79.40;;;;;;4988238;28;20034;-81
2022/10/23 06:49:04;;;;;;;2.13;1.25;;;16.60;79.40;;;;;;5000873;28;20050;-79
2022/10/23 06:51:34;;;;;;;2.53;1.20;;;16.60;79.40;;;;;;4989834;28;20030;-81
2022/10/23 06:54:00;;;;;;;2.72;1.40;;;16.60;79.40;;;;;;4996418;28;20034;-80
2022/10/23 06:56:52;;;;;;;2.40;1.52;;;16.60;79.40;;;;;;4969950;28;20045;-80
2022/10/23 06:59:23;;;;;;;2.03;1.20;;;16.60;79.50;;;;;;4993554;28;20022;-79
2022/10/23 07:01:51;;;;;;;1.45;1.33;;;16.70;79.70;;;;;;4989048;28;20044;-79
2022/10/23 07:04:18;;;;;;;1.55;1.10;;;16.60;79.60;;;;;;4974509;28;20030;-81
2022/10/23 07:06:44;;;;;;;2.58;1.50;;;16.60;79.60;;;;;;4987797;28;20057;-77
2022/10/23 07:09:10;;;;;;;2.03;1.00;;;16.60;79.60;;;;;;4983584;28;20064;-77
2022/10/23 07:11:49;;;;;;;3.20;1.00;;;16.60;79.60;;;;;;4987116;28;20036;-77
2022/10/23 07:14:15;;;;;;;3.10;0.80;;;16.60;79.60;;;;;;4987879;28;20579;-82
2022/10/23 07:16:41;;;;;;;1.02;0.90;;;16.60;79.60;;;;;;4995353;28;20405;-78
2022/10/23 07:19:09;;;;;;;2.10;1.08;;;16.60;79.60;;;;;;4990947;28;20023;-77
2022/10/23 07:22:05;;;;;;;3.45;1.10;;;16.60;79.60;;;;;;4989327;28;20046;-79
2022/10/23 07:24:52;;;;;;;3.95;1.20;;;16.60;79.60;;;;;;5000887;28;20057;-77
2022/10/23 07:27:37;;;;;;;1.65;0.88;;;16.60;79.50;;;;;;4996671;28;20050;-77
2022/10/23 07:30:03;;;;;;;3.38;1.10;;;16.60;79.50;;;;;;4990806;28;20043;-77
2022/10/23 07:32:34;;;;;;;1.00;0.90;;;16.60;79.50;;;;;;5010066;28;20018;-80
2022/10/23 07:35:34;;;;;;;1.55;0.75;;;16.60;79.50;;;;;;4985104;28;20054;-78
2022/10/23 07:38:07;;;;;;;0.98;0.63;;;16.60;79.40;;;;;;5014682;28;20053;-78
2022/10/23 07:40:36;;;;;;;1.23;0.60;;;16.60;79.40;;;;;;4999890;28;20465;-78
2022/10/23 07:43:04;;;;;;;1.02;0.65;;;16.60;79.30;;;;;;5003177;28;20018;-81
2022/10/23 07:45:34;;;;;;;2.40;0.73;;;16.70;79.40;;;;;;4969498;28;20589;-79
2022/10/23 07:48:06;;;;;;;1.85;0.60;;;16.70;79.30;;;;;;5003453;28;20064;-84
2022/10/23 07:50:59;;;;;;;1.75;0.63;;;16.80;79.30;;;;;;4996116;28;20045;-79
2022/10/23 07:53:27;;;;;;;1.35;1.00;;;16.80;79.60;;;;;;5005074;28;21562;-79
2022/10/23 07:56:00;;;;;;;2.67;1.13;;;16.90;79.20;;;;;;4994890;28;20038;-78
2022/10/23 07:58:37;;;;;;;1.00;0.90;;;16.90;79.10;;;;;;4995262;28;20041;-78
2022/10/23 08:01:18;;;;;;;0.70;0.60;;;16.90;78.90;;;;;;5008529;28;20481;-78
2022/10/23 08:03:45;;;;;;;2.53;1.15;;;17.00;79.00;;;;;;4980899;28;20039;-76
2022/10/23 08:06:11;;;;;;;1.92;1.00;;;17.00;78.90;;;;;;4983239;28;20030;-79
2022/10/23 08:08:38;;;;;;;3.65;1.08;;;17.00;78.80;;;;;;5012781;28;20169;-80
2022/10/23 08:11:04;;;;;;;2.05;1.00;;;17.00;79.20;;;;;;4995227;28;20034;-80
2022/10/23 08:13:43;;;;;;;2.80;1.00;;;17.00;78.90;;;;;;4979722;28;20128;-86
2022/10/23 08:16:10;;;;;;;1.58;0.98;;;17.00;78.90;;;;;;4981960;28;20057;-80
2022/10/23 08:18:55;;;;;;;2.35;1.33;;;17.00;79.00;;;;;;5012014;28;20037;-80
2022/10/23 08:21:21;;;;;;;1.70;1.20;;;16.90;78.90;;;;;;5008738;28;20565;-79
2022/10/23 08:23:51;;;;;;;1.92;1.10;;;16.90;78.90;;;;;;5013090;28;20026;-80
2022/10/23 08:26:19;;;;;;;1.88;1.10;;;16.90;79.00;;;;;;5001400;28;20073;-80
2022/10/23 08:28:46;;;;;;;1.98;1.05;;;16.90;78.90;;;;;;5010552;28;20034;-79
2022/10/23 08:31:15;;;;;;;1.73;0.93;;;16.90;78.90;;;;;;5002496;28;20078;-81
2022/10/23 08:33:53;;;;;;;2.25;1.02;;;17.00;79.00;;;;;;4989157;28;20033;-81
2022/10/23 08:36:23;;;;;;;2.67;1.30;;;17.00;79.00;;;;;;4990136;28;20030;-84
2022/10/23 08:38:52;;;;;;;16.85;5.53;;;17.00;78.90;;;;;;4996342;28;20086;-85
2022/10/23 08:41:42;;;;;;;11.07;5.10;;;17.00;79.00;;;;;;5000395;28;20090;-88
2022/10/23 08:44:29;;;;;;;15.18;6.28;;;17.00;79.60;;;;;;5001591;28;20523;-88
2022/10/23 08:47:04;;;;;;;11.13;5.35;;;17.10;80.50;;;;;;5010060;28;20141;-85
2022/10/23 08:49:50;;;;;;;11.90;4.55;;;17.10;80.70;;;;;;5014868;28;20188;-86
2022/10/23 08:52:40;;;;;;;9.30;4.57;;;17.20;81.00;;;;;;5003380;28;20038;-84
2022/10/23 08:55:34;;;;;;;10.77;4.78;;;17.30;81.70;;;;;;5004203;28;20165;-86
2022/10/23 08:58:44;;;;;;;10.50;4.10;;;17.40;81.90;;;;;;5003863;28;20049;-88
2022/10/23 09:01:30;;;;;;;9.73;4.95;;;17.50;82.00;;;;;;4898594;29;20226;-88
2022/10/23 09:03:58;;;;;;;8.55;3.22;;;17.60;82.10;;;;;;4999912;28;20379;-88
2022/10/23 09:06:39;;;;;;;7.47;3.47;;;17.70;82.00;;;;;;5004778;28;20052;-85
2022/10/23 09:09:43;;;;;;;7.82;3.08;;;17.90;82.50;;;;;;5007904;28;20102;-82
2022/10/23 09:12:38;;;;;;;7.10;3.75;;;18.10;82.60;;;;;;4999896;28;20362;-88
2022/10/23 09:15:19;;;;;;;13.27;3.72;;;18.30;82.40;;;;;;4995270;28;20057;-82
2022/10/23 09:17:46;;;;;;;6.15;3.13;;;18.40;82.00;;;;;;5006832;28;20136;-82
2022/10/23 09:20:25;;;;;;;5.55;2.47;;;18.70;82.00;;;;;;4993965;28;20084;-88
2022/10/23 09:23:02;;;;;;;5.15;2.13;;;18.90;81.90;;;;;;4992067;28;20590;-84
2022/10/23 09:25:35;;;;;;;5.22;2.47;;;19.10;81.70;;;;;;4992540;28;20072;-82
2022/10/23 09:28:02;;;;;;;6.25;2.90;;;19.20;81.40;;;;;;4991049;28;20042;-83
2022/10/23 09:30:40;;;;;;;5.38;2.20;;;19.30;81.20;;;;;;4992081;28;20036;-83
2022/10/23 09:33:33;;;;;;;3.90;1.85;;;19.40;81.10;;;;;;4987968;28;20089;-85
2022/10/23 09:36:04;;;;;;;3.53;2.03;;;19.40;80.90;;;;;;5007381;28;20405;-84
2022/10/23 09:38:36;;;;;;;3.17;2.05;;;19.50;81.00;;;;;;4995470;28;20030;-81
2022/10/23 09:41:16;;;;;;;2.72;1.40;;;19.50;80.80;;;;;;4995640;28;20047;-82
2022/10/23 09:43:42;;;;;;;2.30;1.10;;;19.60;80.70;;;;;;4991975;28;20021;-82
2022/10/23 09:46:10;;;;;;;4.97;1.55;;;19.60;80.60;;;;;;4993751;28;20034;-82
2022/10/23 09:48:43;;;;;;;2.22;1.02;;;19.50;80.30;;;;;;4996440;28;20050;-82
2022/10/23 09:51:19;;;;;;;2.60;1.48;;;19.50;80.20;;;;;;5005873;28;20044;-82
2022/10/23 09:53:52;;;;;;;3.60;1.45;;;19.50;80.30;;;;;;4994174;28;20034;-83
2022/10/23 09:56:34;;;;;;;4.70;1.48;;;19.50;80.40;;;;;;5011366;28;20405;-85
2022/10/23 09:59:18;;;;;;;3.60;1.42;;;19.40;80.30;;;;;;4979137;28;20034;-84
2022/10/23 10:01:50;;;;;;;2.55;1.58;;;19.40;80.40;;;;;;5014949;28;20106;-90
2022/10/23 10:04:40;;;;;;;4.57;1.98;;;19.40;80.50;;;;;;5009609;28;20466;-89
2022/10/23 10:07:29;;;;;;;3.55;1.60;;;19.40;80.60;;;;;;4999168;28;20121;-90
2022/10/23 10:09:56;;;;;;;3.05;1.23;;;19.40;80.70;;;;;;4995225;28;20121;-82
2022/10/23 10:12:51;;;;;;;3.53;1.67;;;19.40;80.70;;;;;;4996035;28;20038;-79
2022/10/23 10:15:44;;;;;;;2.55;1.00;;;19.50;81.00;;;;;;4988801;28;20053;-85
2022/10/23 10:18:16;;;;;;;3.20;0.90;;;19.50;81.00;;;;;;5006944;28;20034;-85
2022/10/23 10:21:03;;;;;;;3.80;1.10;;;19.60;81.00;;;;;;4998864;28;20133;-88
2022/10/23 10:23:36;;;;;;;1.77;0.85;;;19.70;81.00;;;;;;4991242;28;20027;-81
2022/10/23 10:26:03;;;;;;;;;;;19.80;80.80;;;;;;4998797;28;20117;-83
2022/10/23 10:29:14;;;;;;;3.15;1.52;;;19.80;80.50;;;;;;4995836;28;19914;-89
2022/10/23 10:31:46;;;;;;;2.80;1.35;;;19.90;80.50;;;;;;4997541;28;20109;-89
2022/10/23 10:34:28;;;;;;;2.78;0.90;;;19.90;80.40;;;;;;4995373;28;20069;-92
2022/10/23 10:37:15;;;;;;;2.20;0.93;;;19.90;80.40;;;;;;4998867;28;20129;-89
2022/10/23 10:40:10;;;;;;;2.45;0.98;;;20.10;80.50;;;;;;4981932;28;20311;-87
2022/10/23 10:42:47;;;;;;;3.17;0.90;;;20.10;80.20;;;;;;4988650;28;20817;-87
2022/10/23 10:45:46;;;;;;;1.67;0.68;;;20.20;80.10;;;;;;4992822;28;20096;-84
2022/10/23 10:48:30;;;;;;;3.40;0.88;;;20.30;80.10;;;;;;5008787;28;20072;-88
2022/10/23 10:51:33;;;;;;;3.50;1.45;;;20.30;79.90;;;;;;5002475;28;20339;-90
2022/10/23 10:54:27;;;;;;;3.35;1.02;;;20.40;80.10;;;;;;4987931;28;20202;-83
2022/10/23 10:56:59;;;;;;;2.20;1.08;;;20.30;79.90;;;;;;5008102;28;20137;-89
2022/10/23 10:59:37;;;;;;;1.52;0.70;;;20.30;79.80;;;;;;4995183;28;20069;-86
2022/10/23 11:02:26;;;;;;;2.22;0.80;;;20.40;80.00;;;;;;4992895;28;20118;-85
2022/10/23 11:05:04;;;;;;;3.95;1.13;;;20.40;80.00;;;;;;4990511;28;20034;-91
2022/10/23 11:07:39;;;;;;;1.70;0.77;;;20.40;80.00;;;;;;4992117;28;20073;-87
2022/10/23 11:10:19;;;;;;;2.67;1.30;;;20.50;80.00;;;;;;5014391;28;20033;-90
2022/10/23 11:12:46;;;;;;;2.45;1.15;;;20.50;79.90;;;;;;5010344;28;20565;-90
2022/10/23 11:15:17;;;;;;;3.22;0.80;;;20.60;80.00;;;;;;4994093;28;20035;-85
2022/10/23 11:17:49;;;;;;;1.60;0.73;;;20.60;79.80;;;;;;4990815;28;20027;-82
2022/10/23 11:20:38;;;;;;;2.25;0.90;;;20.70;79.80;;;;;;4975094;28;20064;-83
2022/10/23 11:23:24;;;;;;;3.55;1.33;;;20.80;79.60;;;;;;5015943;28;20118;-83
2022/10/23 11:26:02;;;;;;;16.55;5.32;;;20.90;79.50;;;;;;4980639;28;20098;-79
2022/10/23 11:28:36;;;;;;;11.60;3.45;;;21.00;79.50;;;;;;4996532;28;20046;-84
2022/10/23 11:31:19;;;;;;;12.63;3.15;;;21.10;79.60;;;;;;5001085;28;20042;-84
2022/10/23 11:34:01;;;;;;;9.57;3.15;;;21.20;79.70;;;;;;4986828;28;20038;-84
2022/10/23 11:36:54;;;;;;;7.40;2.22;;;21.30;80.10;;;;;;4989601;28;20121;-91
2022/10/23 11:39:32;;;;;;;5.65;1.77;;;21.40;80.50;;;;;;4985546;28;20082;-91
2022/10/23 11:42:40;;;;;;;6.97;2.28;;;21.50;80.60;;;;;;4990308;28;20070;-93
2022/10/23 11:45:31;;;;;;;2.80;1.30;;;21.40;80.30;;;;;;5008592;28;20326;-85
2022/10/23 11:48:13;;;;;;;6.38;2.13;;;21.50;80.20;;;;;;4996893;28;20110;-91
2022/10/23 11:50:46;;;;;;;8.65;1.98;;;21.60;80.10;;;;;;4999624;28;20042;-93
2022/10/23 11:53:30;;;;;;;6.28;1.58;;;21.60;80.00;;;;;;4989618;28;20026;-86
2022/10/23 11:56:18;;;;;;;3.90;1.77;;;21.60;79.90;;;;;;4990475;28;20053;-85
2022/10/23 11:58:49;;;;;;;3.70;1.40;;;21.60;79.90;;;;;;4985814;28;20285;-86
2022/10/23 12:01:27;;;;;;;4.60;1.98;;;21.60;80.00;;;;;;4988084;28;20268;-86
2022/10/23 12:04:12;;;;;;;4.57;1.88;;;21.70;80.10;;;;;;4987599;28;20034;-82
2022/10/23 12:06:56;;;;;;;4.35;1.45;;;21.70;80.10;;;;;;4989923;28;20030;-85
2022/10/23 12:09:45;;;;;;;2.85;1.30;;;21.70;80.10;;;;;;4990605;28;20506;-84
2022/10/23 12:12:11;;;;;;;4.65;1.55;;;21.80;80.10;;;;;;4991567;28;20026;-83
2022/10/23 12:14:41;;;;;;;4.47;1.38;;;21.90;80.10;;;;;;4996337;28;20118;-85
2022/10/23 12:17:21;;;;;;;2.90;1.25;;;22.00;80.00;;;;;;4989176;28;20036;-86
2022/10/23 12:19:52;;;;;;;4.25;2.38;;;22.00;79.60;;;;;;4992186;28;20034;-84
2022/10/23 12:22:21;;;;;;;7.00;1.35;;;22.10;79.60;;;;;;4991589;28;20018;-86
2022/10/23 12:25:04;;;;;;;5.88;1.67;;;22.10;79.40;;;;;;4993958;28;20167;-84
2022/10/23 12:28:04;;;;;;;6.50;1.35;;;22.30;79.50;;;;;;4991162;28;20018;-81
2022/10/23 12:30:41;;;;;;;3.80;1.27;;;22.50;79.60;;;;;;4974650;28;20393;-80
2022/10/23 12:33:40;;;;;;;4.13;1.40;;;22.60;79.30;;;;;;4989575;28;20034;-80
2022/10/23 12:36:37;;;;;;;2.53;1.30;;;22.70;78.90;;;;;;4991226;28;20046;-79
2022/10/23 12:39:31;;;;;;;5.15;1.52;;;22.90;78.60;;;;;;4991720;28;20036;-82
2022/10/23 12:41:59;;;;;;;4.20;1.75;;;22.90;78.00;;;;;;4983700;28;20127;-84
2022/10/23 12:44:26;;;;;;;4.90;1.10;;;23.10;78.30;;;;;;4991634;28;20125;-83
2022/10/23 12:46:58;;;;;;;6.13;2.08;;;23.10;77.80;;;;;;4988960;28;20099;-82
2022/10/23 12:49:27;;;;;;;3.60;1.05;;;23.20;77.50;;;;;;4981256;28;20406;-83
2022/10/23 12:52:04;;;;;;;3.05;1.27;;;23.30;77.90;;;;;;4983072;28;20415;-84
2022/10/23 12:54:32;;;;;;;2.95;1.05;;;23.30;77.00;;;;;;4988757;28;20420;-83
2022/10/23 12:56:58;;;;;;;4.28;1.00;;;23.40;76.80;;;;;;4983869;28;20049;-83
2022/10/23 12:59:30;;;;;;;2.75;0.90;;;23.50;76.60;;;;;;4993711;28;20045;-84
2022/10/23 13:01:56;;;;;;;1.35;0.77;;;23.60;76.40;;;;;;4986311;28;20034;-83
2022/10/23 13:04:30;;;;;;;3.88;1.38;;;23.60;76.20;;;;;;4988907;28;20511;-84
2022/10/23 13:07:01;;;;;;;3.92;1.15;;;23.70;75.90;;;;;;4982300;28;20030;-86
2022/10/23 13:09:40;;;;;;;4.38;1.25;;;23.80;75.80;;;;;;5013679;28;20038;-87
2022/10/23 13:12:29;;;;;;;2.53;1.30;;;23.90;75.50;;;;;;4992701;28;20113;-88
2022/10/23 13:15:12;;;;;;;4.88;1.08;;;24.00;75.50;;;;;;5007326;28;20042;-85
2022/10/23 13:17:42;;;;;;;6.18;1.90;;;24.00;75.40;;;;;;4997712;28;20511;-85
2022/10/23 13:20:20;;;;;;;4.00;1.65;;;24.10;75.40;;;;;;5010203;28;20038;-84
2022/10/23 13:23:16;;;;;;;9.07;1.38;;;24.00;74.90;;;;;;5011738;28;20058;-84
2022/10/23 13:25:52;;;;;;;2.83;0.88;;;24.10;74.80;;;;;;5011495;28;20022;-84
2022/10/23 13:28:27;;;;;;;2.63;0.90;;;24.10;74.80;;;;;;5018332;28;20077;-86